DLH2PM EDDM-ESSA
Flight info
| Callsign | DLH2PM |
|---|---|
| Flight time | N/A |
| Altitude | 37000 |
| Route | AKINI1N/26R AKINI Y104 MAMOR L132 AGNAV DCT SUPIL DCT KILNU DCT UNRIG DCT BODLA DCT DEMUR DCT ARMOD Z228 NILUG |
| Aircraft | A321/M-SDE3FGHIRWY/LB1 |
Departure
| Time | N/A |
|---|---|
| Airport | Munich Airport (EDDM) |
Arrival
| Time | 2026-05-06 19:53 |
|---|---|
| Airport | Stockholm-Arlanda Airport (ESSA) |
| Time | Latitude | Longitude | Altitude | Speed | Heading |
|---|---|---|---|---|---|
| 2026-05-06 19:06 | 55.25260 | 15.67238 | 36975 ft | 485 kts | 14° |
| 2026-05-06 19:07 | 55.31655 | 15.70839 | 36992 ft | 485 kts | 15° |
| 2026-05-06 19:07 | 55.38077 | 15.74465 | 36989 ft | 484 kts | 15° |
| 2026-05-06 19:08 | 55.44505 | 15.78107 | 36985 ft | 484 kts | 15° |
| 2026-05-06 19:08 | 55.50883 | 15.81727 | 36984 ft | 484 kts | 15° |
| 2026-05-06 19:09 | 55.57299 | 15.85372 | 36988 ft | 484 kts | 15° |
| 2026-05-06 19:09 | 55.63709 | 15.89038 | 36987 ft | 484 kts | 15° |
| 2026-05-06 19:10 | 55.70125 | 15.92737 | 36990 ft | 484 kts | 15° |
| 2026-05-06 19:10 | 55.76525 | 15.96456 | 36989 ft | 484 kts | 15° |
| 2026-05-06 19:11 | 55.82890 | 16.00138 | 37007 ft | 484 kts | 15° |
| 2026-05-06 19:11 | 55.89303 | 16.03847 | 36999 ft | 484 kts | 15° |
| 2026-05-06 19:12 | 55.95707 | 16.07566 | 36999 ft | 483 kts | 15° |
| 2026-05-06 19:12 | 56.02063 | 16.11272 | 36998 ft | 483 kts | 15° |
| 2026-05-06 19:13 | 56.08460 | 16.15010 | 37013 ft | 483 kts | 15° |
| 2026-05-06 19:13 | 56.14854 | 16.18770 | 37004 ft | 483 kts | 15° |
| 2026-05-06 19:14 | 56.21246 | 16.22549 | 37001 ft | 483 kts | 15° |
| 2026-05-06 19:14 | 56.27597 | 16.26320 | 37000 ft | 483 kts | 15° |
| 2026-05-06 19:15 | 56.33992 | 16.30124 | 37014 ft | 483 kts | 15° |
| 2026-05-06 19:15 | 56.40353 | 16.33917 | 37013 ft | 484 kts | 15° |
| 2026-05-06 19:16 | 56.46743 | 16.37733 | 37018 ft | 484 kts | 15° |
| 2026-05-06 19:16 | 56.53134 | 16.41574 | 37022 ft | 484 kts | 15° |
| 2026-05-06 19:17 | 56.59527 | 16.45426 | 37033 ft | 484 kts | 15° |
| 2026-05-06 19:17 | 56.65921 | 16.49284 | 37028 ft | 484 kts | 15° |
| 2026-05-06 19:18 | 56.72272 | 16.53128 | 37022 ft | 484 kts | 15° |
| 2026-05-06 19:18 | 56.78660 | 16.57020 | 37020 ft | 484 kts | 16° |
| 2026-05-06 19:19 | 56.85059 | 16.60935 | 37015 ft | 484 kts | 15° |
| 2026-05-06 19:19 | 56.91437 | 16.64863 | 37018 ft | 483 kts | 16° |
| 2026-05-06 19:20 | 56.97781 | 16.68780 | 37006 ft | 484 kts | 16° |
| 2026-05-06 19:20 | 57.04176 | 16.72719 | 37007 ft | 484 kts | 15° |
| 2026-05-06 19:21 | 57.10571 | 16.76679 | 37037 ft | 485 kts | 16° |
| 2026-05-06 19:21 | 57.16963 | 16.80671 | 37027 ft | 485 kts | 16° |
| 2026-05-06 19:22 | 57.23316 | 16.84641 | 37015 ft | 486 kts | 16° |
| 2026-05-06 19:22 | 57.29723 | 16.88663 | 37018 ft | 486 kts | 16° |
| 2026-05-06 19:23 | 57.36131 | 16.92689 | 37039 ft | 486 kts | 15° |
| 2026-05-06 19:23 | 57.42538 | 16.96726 | 37027 ft | 486 kts | 16° |
| 2026-05-06 19:24 | 57.48904 | 17.00764 | 37027 ft | 487 kts | 16° |
| 2026-05-06 19:24 | 57.55320 | 17.04859 | 37025 ft | 487 kts | 16° |
| 2026-05-06 19:25 | 57.61732 | 17.08957 | 37028 ft | 487 kts | 16° |
| 2026-05-06 19:25 | 57.68151 | 17.13073 | 37028 ft | 487 kts | 16° |
| 2026-05-06 19:26 | 57.74534 | 17.17182 | 36584 ft | 489 kts | 16° |
| 2026-05-06 19:26 | 57.77742 | 17.19254 | 36022 ft | 487 kts | 16° |
| 2026-05-06 19:26 | 57.80942 | 17.21325 | 35472 ft | 486 kts | 16° |
| 2026-05-06 19:26 | 57.84142 | 17.23394 | 34933 ft | 486 kts | 16° |
| 2026-05-06 19:27 | 57.87343 | 17.25464 | 34424 ft | 487 kts | 16° |
| 2026-05-06 19:27 | 57.90553 | 17.27549 | 33886 ft | 488 kts | 16° |
| 2026-05-06 19:27 | 57.93725 | 17.29619 | 33280 ft | 489 kts | 16° |
| 2026-05-06 19:27 | 57.96939 | 17.31722 | 32676 ft | 490 kts | 16° |
| 2026-05-06 19:28 | 58.00162 | 17.33836 | 32097 ft | 491 kts | 16° |
| 2026-05-06 19:28 | 58.03377 | 17.35943 | 31527 ft | 491 kts | 16° |
| 2026-05-06 19:28 | 58.06626 | 17.38072 | 30960 ft | 492 kts | 15° |
| 2026-05-06 19:28 | 58.09868 | 17.40203 | 30410 ft | 493 kts | 15° |
| 2026-05-06 19:29 | 58.13114 | 17.42344 | 29866 ft | 494 kts | 15° |
| 2026-05-06 19:29 | 58.16371 | 17.44493 | 29233 ft | 497 kts | 15° |
| 2026-05-06 19:29 | 58.19593 | 17.46622 | 28624 ft | 494 kts | 15° |
| 2026-05-06 19:29 | 58.22825 | 17.48762 | 28021 ft | 490 kts | 15° |
| 2026-05-06 19:30 | 58.26029 | 17.50893 | 27432 ft | 485 kts | 15° |
| 2026-05-06 19:30 | 58.29199 | 17.53008 | 26852 ft | 480 kts | 15° |
| 2026-05-06 19:30 | 58.32332 | 17.55105 | 26285 ft | 475 kts | 15° |
| 2026-05-06 19:30 | 58.35432 | 17.57182 | 25731 ft | 470 kts | 15° |
| 2026-05-06 19:31 | 58.38505 | 17.59242 | 25186 ft | 466 kts | 15° |
| 2026-05-06 19:31 | 58.41551 | 17.61284 | 24670 ft | 462 kts | 15° |
| 2026-05-06 19:31 | 58.47576 | 17.65327 | 23634 ft | 454 kts | 15° |
| 2026-05-06 19:32 | 58.50500 | 17.67297 | 23078 ft | 449 kts | 15° |
| 2026-05-06 19:32 | 58.53423 | 17.69270 | 22594 ft | 442 kts | 15° |
| 2026-05-06 19:32 | 58.56306 | 17.71215 | 21981 ft | 435 kts | 15° |
| 2026-05-06 19:32 | 58.59148 | 17.73137 | 21403 ft | 429 kts | 15° |
| 2026-05-06 19:33 | 58.61944 | 17.75037 | 20838 ft | 423 kts | 15° |
| 2026-05-06 19:33 | 58.64704 | 17.76919 | 20307 ft | 417 kts | 16° |
| 2026-05-06 19:33 | 58.67430 | 17.78782 | 19783 ft | 412 kts | 15° |
| 2026-05-06 19:33 | 58.70081 | 17.80594 | 19275 ft | 407 kts | 16° |
| 2026-05-06 19:34 | 58.72732 | 17.82408 | 18772 ft | 401 kts | 16° |
| 2026-05-06 19:34 | 58.75350 | 17.84200 | 18257 ft | 396 kts | 16° |
| 2026-05-06 19:34 | 58.77929 | 17.85968 | 17712 ft | 390 kts | 16° |
| 2026-05-06 19:34 | 58.80467 | 17.87711 | 17203 ft | 383 kts | 17° |
| 2026-05-06 19:35 | 58.82871 | 17.89685 | 16769 ft | 377 kts | 24° |
| 2026-05-06 19:35 | 58.85259 | 17.91948 | 16494 ft | 388 kts | 24° |
| 2026-05-06 19:35 | 58.87700 | 17.94245 | 16171 ft | 391 kts | 24° |
| 2026-05-06 19:35 | 58.90136 | 17.96539 | 15846 ft | 389 kts | 24° |
| 2026-05-06 19:36 | 58.92559 | 17.98826 | 15533 ft | 387 kts | 24° |
| 2026-05-06 19:36 | 58.94975 | 18.01112 | 15201 ft | 385 kts | 24° |
| 2026-05-06 19:36 | 58.97374 | 18.03386 | 14875 ft | 382 kts | 24° |
| 2026-05-06 19:36 | 58.99734 | 18.05625 | 14560 ft | 380 kts | 24° |
| 2026-05-06 19:37 | 59.02098 | 18.07871 | 14246 ft | 377 kts | 24° |
| 2026-05-06 19:37 | 59.04449 | 18.10115 | 13930 ft | 374 kts | 24° |
| 2026-05-06 19:37 | 59.06778 | 18.12339 | 13590 ft | 371 kts | 24° |
| 2026-05-06 19:37 | 59.08332 | 18.13720 | 13389 ft | 369 kts | 19° |
| 2026-05-06 19:38 | 59.11624 | 18.15377 | 12981 ft | 363 kts | 5° |
| 2026-05-06 19:38 | 59.14133 | 18.15724 | 12682 ft | 361 kts | 1° |
| 2026-05-06 19:38 | 59.16635 | 18.16000 | 12380 ft | 359 kts | 1° |
| 2026-05-06 19:38 | 59.19127 | 18.16284 | 12090 ft | 357 kts | 1° |
| 2026-05-06 19:39 | 59.21606 | 18.16577 | 11785 ft | 356 kts | 1° |
| 2026-05-06 19:39 | 59.24039 | 18.16869 | 11492 ft | 354 kts | 1° |
| 2026-05-06 19:39 | 59.26494 | 18.17160 | 11198 ft | 352 kts | 1° |
| 2026-05-06 19:39 | 59.28936 | 18.17450 | 11008 ft | 350 kts | 2° |
| 2026-05-06 19:40 | 59.31303 | 18.17734 | 11018 ft | 329 kts | 1° |
| 2026-05-06 19:40 | 59.33514 | 18.18004 | 11020 ft | 309 kts | 1° |
| 2026-05-06 19:40 | 59.35601 | 18.18254 | 11028 ft | 294 kts | 1° |
| 2026-05-06 19:40 | 59.37638 | 18.18487 | 10832 ft | 292 kts | 1° |
| 2026-05-06 19:41 | 59.39667 | 18.18719 | 10375 ft | 292 kts | 1° |
| 2026-05-06 19:41 | 59.41677 | 18.18957 | 10123 ft | 287 kts | 2° |
| 2026-05-06 19:41 | 59.43671 | 18.19196 | 9975 ft | 287 kts | 2° |
| 2026-05-06 19:41 | 59.45659 | 18.19434 | 9700 ft | 285 kts | 2° |
| 2026-05-06 19:42 | 59.47636 | 18.19669 | 9467 ft | 284 kts | 2° |
| 2026-05-06 19:42 | 59.49601 | 18.19903 | 9239 ft | 282 kts | 1° |
| 2026-05-06 19:42 | 59.51532 | 18.20133 | 8992 ft | 281 kts | 2° |
| 2026-05-06 19:42 | 59.53478 | 18.20439 | 8765 ft | 280 kts | 7° |
| 2026-05-06 19:43 | 59.55392 | 18.21130 | 8502 ft | 279 kts | 9° |
| 2026-05-06 19:43 | 59.57298 | 18.21827 | 8244 ft | 278 kts | 9° |
| 2026-05-06 19:43 | 59.59195 | 18.22520 | 7987 ft | 277 kts | 9° |
| 2026-05-06 19:43 | 59.61083 | 18.23203 | 7736 ft | 275 kts | 9° |
| 2026-05-06 19:44 | 59.62966 | 18.23885 | 7483 ft | 274 kts | 9° |
| 2026-05-06 19:44 | 59.64834 | 18.24566 | 7231 ft | 273 kts | 9° |
| 2026-05-06 19:44 | 59.66675 | 18.25241 | 6982 ft | 271 kts | 9° |
| 2026-05-06 19:44 | 59.68526 | 18.25921 | 6727 ft | 270 kts | 10° |
| 2026-05-06 19:45 | 59.70371 | 18.26594 | 6485 ft | 269 kts | 10° |
| 2026-05-06 19:45 | 59.72209 | 18.27262 | 6224 ft | 268 kts | 10° |
| 2026-05-06 19:45 | 59.74034 | 18.27930 | 5973 ft | 266 kts | 10° |
| 2026-05-06 19:45 | 59.75853 | 18.28600 | 5742 ft | 266 kts | 10° |
| 2026-05-06 19:46 | 59.77666 | 18.29267 | 5502 ft | 265 kts | 9° |
| 2026-05-06 19:46 | 59.79481 | 18.29935 | 5253 ft | 265 kts | 9° |
| 2026-05-06 19:46 | 59.81302 | 18.30246 | 5009 ft | 262 kts | 353° |
| 2026-05-06 19:46 | 59.83005 | 18.29204 | 4774 ft | 259 kts | 329° |
| 2026-05-06 19:47 | 59.84366 | 18.26908 | 4526 ft | 258 kts | 306° |
| 2026-05-06 19:47 | 59.85167 | 18.23744 | 4254 ft | 257 kts | 283° |
| 2026-05-06 19:47 | 59.85281 | 18.20246 | 3976 ft | 254 kts | 260° |
| 2026-05-06 19:47 | 59.84715 | 18.16952 | 3697 ft | 253 kts | 239° |
| 2026-05-06 19:48 | 59.83825 | 18.13942 | 3444 ft | 250 kts | 238° |
| 2026-05-06 19:48 | 59.83247 | 18.11996 | 3370 ft | 242 kts | 238° |
| 2026-05-06 19:48 | 59.82409 | 18.09172 | 3234 ft | 232 kts | 238° |
| 2026-05-06 19:48 | 59.81610 | 18.06478 | 3101 ft | 221 kts | 238° |
| 2026-05-06 19:49 | 59.80838 | 18.03892 | 2846 ft | 216 kts | 234° |
| 2026-05-06 19:49 | 59.79379 | 18.01362 | 2393 ft | 210 kts | 201° |
| 2026-05-06 19:49 | 59.77976 | 18.00649 | 2076 ft | 207 kts | 189° |
| 2026-05-06 19:49 | 59.76598 | 18.00153 | 2004 ft | 194 kts | 189° |
| 2026-05-06 19:50 | 59.75751 | 17.99845 | 2019 ft | 180 kts | 189° |
| 2026-05-06 19:50 | 59.74590 | 17.99422 | 1999 ft | 163 kts | 189° |
| 2026-05-06 19:50 | 59.73501 | 17.99025 | 1862 ft | 157 kts | 189° |
| 2026-05-06 19:50 | 59.72438 | 17.98638 | 1674 ft | 154 kts | 189° |
| 2026-05-06 19:51 | 59.71412 | 17.98263 | 1478 ft | 145 kts | 189° |
| 2026-05-06 19:51 | 59.70442 | 17.97910 | 1294 ft | 140 kts | 188° |
| 2026-05-06 19:51 | 59.69488 | 17.97563 | 1082 ft | 139 kts | 189° |
| 2026-05-06 19:51 | 59.68553 | 17.97223 | 883 ft | 138 kts | 188° |
| 2026-05-06 19:52 | 59.67603 | 17.96895 | 722 ft | 141 kts | 188° |
| 2026-05-06 19:52 | 59.66653 | 17.96545 | 538 ft | 136 kts | 190° |
| 2026-05-06 19:52 | 59.65741 | 17.96198 | 325 ft | 131 kts | 187° |
| 2026-05-06 19:52 | 59.64847 | 17.95871 | 140 ft | 131 kts | 187° |
| 2026-05-06 19:53 | 59.64020 | 17.95589 | 112 ft | 109 kts | 193° |
| 2026-05-06 19:53 | 59.63416 | 17.95365 | 123 ft | 64 kts | 191° |
| 2026-05-06 19:53 | 59.63078 | 17.95242 | 133 ft | 42 kts | 193° |
| 2026-05-06 19:53 | 59.62923 | 17.95016 | 136 ft | 24 kts | 217° |
| 2026-05-06 19:54 | 59.62846 | 17.94796 | 137 ft | 6 kts | 313° |
| 2026-05-06 19:54 | 59.62895 | 17.94779 | 137 ft | 11 kts | 352° |
| 2026-05-06 19:54 | 59.63025 | 17.94812 | 133 ft | 27 kts | 12° |
| 2026-05-06 19:54 | 59.63267 | 17.94903 | 125 ft | 43 kts | 9° |
| 2026-05-06 19:55 | 59.63570 | 17.95006 | 116 ft | 46 kts | 10° |
| 2026-05-06 19:55 | 59.63857 | 17.95109 | 110 ft | 36 kts | 11° |
| 2026-05-06 19:55 | 59.64110 | 17.95207 | 108 ft | 38 kts | 12° |
| 2026-05-06 19:55 | 59.64372 | 17.95299 | 106 ft | 39 kts | 10° |
| 2026-05-06 19:56 | 59.64637 | 17.95394 | 104 ft | 36 kts | 10° |
| 2026-05-06 19:56 | 59.64862 | 17.95473 | 108 ft | 33 kts | 10° |
| 2026-05-06 19:56 | 59.65075 | 17.95493 | 115 ft | 29 kts | 346° |
| 2026-05-06 19:56 | 59.65265 | 17.95400 | 122 ft | 27 kts | 345° |
| 2026-05-06 19:57 | 59.65445 | 17.95304 | 125 ft | 27 kts | 345° |
| 2026-05-06 19:57 | 59.65633 | 17.95208 | 125 ft | 29 kts | 346° |
| 2026-05-06 19:57 | 59.65743 | 17.95026 | 125 ft | 22 kts | 270° |
| 2026-05-06 19:57 | 59.65710 | 17.94714 | 123 ft | 24 kts | 256° |
| 2026-05-06 19:58 | 59.65669 | 17.94384 | 125 ft | 25 kts | 255° |
| 2026-05-06 19:58 | 59.65622 | 17.94026 | 118 ft | 29 kts | 256° |
| 2026-05-06 19:58 | 59.65567 | 17.93603 | 113 ft | 33 kts | 255° |
| 2026-05-06 19:58 | 59.65510 | 17.93151 | 112 ft | 34 kts | 256° |
| 2026-05-06 19:59 | 59.65438 | 17.92747 | 110 ft | 22 kts | 236° |
| 2026-05-06 19:59 | 59.65380 | 17.92690 | 112 ft | 8 kts | 161° |
| 2026-05-06 19:59 | 59.65372 | 17.92768 | 112 ft | 8 kts | 64° |
| 2026-05-06 19:59 | 59.65393 | 17.92879 | 112 ft | 9 kts | 91° |
| 2026-05-06 20:00 | 59.65383 | 17.92917 | 112 ft | 2 kts | 124° |
| 2026-05-06 20:00 | 59.65372 | 17.92941 | 111 ft | 3 kts | 133° |
| 2026-05-06 20:00 | 59.65367 | 17.92950 | 110 ft | 1 kts | 137° |
| 2026-05-06 20:00 | 59.65366 | 17.92951 | 111 ft | 0 kts | 137° |